createdAt,value
2022-07-25T00:01:17.169Z,99119.31
2022-07-25T00:03:48.585Z,99119.53
2022-07-25T00:06:18.028Z,99121.09
2022-07-25T00:08:44.661Z,99116.44
2022-07-25T00:11:13.953Z,99106.72
2022-07-25T00:13:40.340Z,99113.06
2022-07-25T00:16:06.873Z,99109.03
2022-07-25T00:18:33.757Z,99120.25
2022-07-25T00:21:00.416Z,99115.47
2022-07-25T00:23:26.879Z,99106.91
2022-07-25T00:25:53.561Z,99102.00
2022-07-25T00:28:19.991Z,99108.38
2022-07-25T00:30:46.547Z,99106.28
2022-07-25T00:33:13.258Z,99105.81
2022-07-25T00:35:39.704Z,99102.81
2022-07-25T00:38:06.306Z,99100.06
2022-07-25T00:40:32.824Z,99092.25
2022-07-25T00:42:59.339Z,99105.09
2022-07-25T00:45:26.322Z,99100.31
2022-07-25T00:47:52.993Z,99104.88
2022-07-25T00:50:19.581Z,99095.88
2022-07-25T00:52:46.219Z,99097.97
2022-07-25T00:55:12.756Z,99096.06
2022-07-25T00:57:39.387Z,99094.28
2022-07-25T01:00:05.837Z,99095.00
2022-07-25T01:02:32.624Z,99091.66
2022-07-25T01:05:00.312Z,99088.22
2022-07-25T01:07:26.708Z,99092.25
2022-07-25T01:09:53.243Z,99078.94
2022-07-25T01:12:20.025Z,99084.09
2022-07-25T01:14:48.049Z,99078.41
2022-07-25T01:17:14.534Z,99077.03
2022-07-25T01:19:41.009Z,99077.28
2022-07-25T01:22:07.453Z,99075.88
2022-07-25T01:24:34.133Z,99080.69
2022-07-25T01:27:00.597Z,99071.75
2022-07-25T01:29:26.997Z,99072.88
2022-07-25T01:31:53.913Z,99068.16
2022-07-25T01:34:22.902Z,99071.97
2022-07-25T01:36:49.361Z,99072.75
2022-07-25T01:39:15.942Z,99067.50
2022-07-25T01:41:44.731Z,99066.53
2022-07-25T01:44:11.373Z,99065.09
2022-07-25T01:46:38.101Z,99060.03
2022-07-25T01:49:04.762Z,99056.97
2022-07-25T01:51:31.300Z,99059.59
2022-07-25T01:53:57.802Z,99051.63
2022-07-25T01:56:24.239Z,99051.94
2022-07-25T01:58:50.743Z,99051.94
2022-07-25T02:01:17.292Z,99049.63
2022-07-25T02:03:45.820Z,99055.84
2022-07-25T02:06:12.355Z,99056.00
2022-07-25T02:08:38.827Z,99058.03
2022-07-25T02:11:05.238Z,99064.09
2022-07-25T02:13:32.208Z,99065.09
2022-07-25T02:15:58.726Z,99052.66
2022-07-25T02:18:25.669Z,99067.97
2022-07-25T02:20:52.090Z,99063.13
2022-07-25T02:23:18.586Z,99059.75
2022-07-25T02:25:45.455Z,99060.59
2022-07-25T02:28:11.892Z,99060.44
2022-07-25T02:30:38.427Z,99058.44
2022-07-25T02:33:05.154Z,99056.91
2022-07-25T02:35:31.645Z,99063.47
2022-07-25T02:37:58.445Z,99059.25
2022-07-25T02:40:24.929Z,99060.44
2022-07-25T02:42:51.663Z,99067.84
2022-07-25T02:45:18.255Z,99061.16
2022-07-25T02:47:44.791Z,99061.50
2022-07-25T02:50:14.686Z,99062.69
2022-07-25T02:52:41.625Z,99061.88
2022-07-25T02:55:09.897Z,99063.22
2022-07-25T02:57:36.518Z,99069.63
2022-07-25T03:00:03.211Z,99065.25
2022-07-25T03:02:29.876Z,99061.22
2022-07-25T03:04:56.276Z,99059.22
2022-07-25T03:07:22.799Z,99057.19
2022-07-25T03:09:49.273Z,99057.38
2022-07-25T03:12:15.810Z,99055.84
2022-07-25T03:14:42.528Z,99053.50
2022-07-25T03:17:09.308Z,99044.75
2022-07-25T03:19:35.876Z,99058.53
2022-07-25T03:22:02.857Z,99050.47
2022-07-25T03:24:29.312Z,99047.81
2022-07-25T03:26:56.007Z,99050.81
2022-07-25T03:29:22.634Z,99045.59
2022-07-25T03:31:49.287Z,99048.63
2022-07-25T03:34:15.862Z,99050.28
2022-07-25T03:36:42.326Z,99045.09
2022-07-25T03:39:08.840Z,99038.19
2022-07-25T03:41:35.260Z,99041.44
2022-07-25T03:44:01.754Z,99040.50
2022-07-25T03:46:28.355Z,99039.84
2022-07-25T03:48:55.108Z,99041.00
2022-07-25T03:51:21.972Z,99039.16
2022-07-25T03:53:48.783Z,99036.47
2022-07-25T03:56:15.283Z,99035.78
2022-07-25T03:58:47.255Z,99045.53
2022-07-25T04:01:14.999Z,99044.53
2022-07-25T04:03:41.455Z,99044.38
2022-07-25T04:06:10.848Z,99039.88
2022-07-25T04:08:37.743Z,99044.09
2022-07-25T04:11:04.222Z,99044.09
2022-07-25T04:13:33.013Z,99046.13
2022-07-25T04:15:59.525Z,99047.13
2022-07-25T04:18:28.782Z,99044.09
2022-07-25T04:20:55.466Z,99036.19
2022-07-25T04:23:21.885Z,99034.66
2022-07-25T04:25:48.306Z,99033.31
2022-07-25T04:28:14.943Z,99031.13
2022-07-25T04:30:41.387Z,99031.28
2022-07-25T04:33:07.843Z,99036.66
2022-07-25T04:35:34.461Z,99031.81
2022-07-25T04:38:00.961Z,99034.16
2022-07-25T04:40:27.789Z,99041.41
2022-07-25T04:42:58.924Z,99038.72
2022-07-25T04:45:25.391Z,99033.69
2022-07-25T04:47:52.123Z,99043.44
2022-07-25T04:50:23.026Z,99046.78
2022-07-25T04:52:51.448Z,99044.59
2022-07-25T04:55:17.866Z,99040.06
2022-07-25T04:57:44.512Z,99044.09
2022-07-25T05:00:11.140Z,99039.38
2022-07-25T05:02:37.682Z,99029.13
2022-07-25T05:05:04.893Z,99031.31
2022-07-25T05:07:31.345Z,99027.25
2022-07-25T05:09:57.767Z,99031.94
2022-07-25T05:12:24.485Z,99033.28
2022-07-25T05:14:50.891Z,99026.75
2022-07-25T05:17:17.347Z,99022.03
2022-07-25T05:19:43.828Z,99025.56
2022-07-25T05:22:10.429Z,99028.56
2022-07-25T05:24:37.866Z,99026.03
2022-07-25T05:27:04.413Z,99026.22
2022-07-25T05:29:30.968Z,99019.81
2022-07-25T05:31:59.549Z,99023.19
2022-07-25T05:34:26.927Z,99016.75
2022-07-25T05:36:53.417Z,99010.00
2022-07-25T05:39:20.308Z,99001.22
2022-07-25T05:41:47.892Z,99000.88
2022-07-25T05:44:14.699Z,99006.59
2022-07-25T05:46:41.661Z,99001.72
2022-07-25T05:49:08.592Z,99004.72
2022-07-25T05:51:35.385Z,98998.50
2022-07-25T05:54:01.916Z,99001.84
2022-07-25T05:56:28.574Z,98999.19
2022-07-25T05:58:56.024Z,98999.03
2022-07-25T06:01:22.535Z,99001.31
2022-07-25T06:03:51.649Z,99002.75
2022-07-25T06:06:19.165Z,99002.28
2022-07-25T06:08:45.722Z,99002.16
2022-07-25T06:11:14.405Z,98999.16
2022-07-25T06:13:41.309Z,99007.59
2022-07-25T06:16:08.123Z,99002.22
2022-07-25T06:18:34.993Z,99001.66
2022-07-25T06:21:01.552Z,98998.09
2022-07-25T06:23:28.045Z,98995.00
2022-07-25T06:25:54.545Z,98996.31
2022-07-25T06:28:21.042Z,98990.28
2022-07-25T06:30:47.506Z,98988.25
2022-07-25T06:33:15.125Z,98981.25
2022-07-25T06:35:41.605Z,98981.41
2022-07-25T06:38:08.037Z,98983.75
2022-07-25T06:40:37.037Z,98975.63
2022-07-25T06:43:03.722Z,98981.84
2022-07-25T06:45:30.211Z,98977.41
2022-07-25T06:47:57.648Z,98973.63
2022-07-25T06:50:24.197Z,98972.97
2022-07-25T06:52:50.706Z,98965.31
2022-07-25T06:55:17.962Z,98967.59
2022-07-25T06:57:44.841Z,98971.25
2022-07-25T07:00:11.283Z,98967.41
2022-07-25T07:02:38.274Z,98959.78
2022-07-25T07:05:04.690Z,98959.41
2022-07-25T07:07:31.216Z,98958.31
2022-07-25T07:10:00.402Z,98963.13
2022-07-25T07:12:26.914Z,98953.47
2022-07-25T07:14:53.522Z,98955.13
2022-07-25T07:17:20.143Z,98948.25
2022-07-25T07:19:47.624Z,98957.28
2022-07-25T07:22:14.160Z,98950.09
2022-07-25T07:24:45.104Z,98946.94
2022-07-25T07:27:14.577Z,98949.47
2022-07-25T07:29:40.971Z,98947.22
2022-07-25T07:32:07.505Z,98943.16
2022-07-25T07:34:34.333Z,98940.88
2022-07-25T07:37:01.211Z,98948.81
2022-07-25T07:39:28.229Z,98941.91
2022-07-25T07:41:54.737Z,98932.63
2022-07-25T07:44:24.243Z,98942.22
2022-07-25T07:46:50.800Z,98933.66
2022-07-25T07:49:17.400Z,98931.47
2022-07-25T07:51:44.275Z,98936.06
2022-07-25T07:54:10.711Z,98934.34
2022-07-25T07:56:38.295Z,98928.94
2022-07-25T07:59:05.675Z,98926.63
2022-07-25T08:01:32.566Z,98927.75
2022-07-25T08:03:59.523Z,98929.22
2022-07-25T08:06:26.357Z,98914.97
2022-07-25T08:08:52.880Z,98908.69
2022-07-25T08:11:19.501Z,98913.03
2022-07-25T08:13:48.212Z,98904.94
2022-07-25T08:16:14.658Z,98906.31
2022-07-25T08:18:41.173Z,98897.38
2022-07-25T08:21:08.035Z,98899.63
2022-07-25T08:23:34.447Z,98899.34
2022-07-25T08:26:00.844Z,98889.00
2022-07-25T08:28:27.437Z,98887.50
2022-07-25T08:30:53.911Z,98888.47
2022-07-25T08:33:20.452Z,98883.75
2022-07-25T08:35:47.019Z,98890.22
2022-07-25T08:38:13.388Z,98882.38
2022-07-25T08:40:39.819Z,98880.34
2022-07-25T08:43:06.288Z,98875.88
2022-07-25T08:45:32.711Z,98875.88
2022-07-25T08:47:59.114Z,98865.34
2022-07-25T08:50:25.671Z,98863.03
2022-07-25T08:53:00.904Z,98860.75
2022-07-25T08:55:31.298Z,98863.09
2022-07-25T08:57:57.691Z,98856.13
2022-07-25T09:00:24.117Z,98855.31
2022-07-25T09:02:50.730Z,98850.06
2022-07-25T09:05:17.142Z,98856.63
2022-07-25T09:07:43.683Z,98848.19
2022-07-25T09:10:10.211Z,98835.03
2022-07-25T09:12:36.577Z,98843.41
2022-07-25T09:15:05.978Z,98838.13
2022-07-25T09:17:34.651Z,98831.22
2022-07-25T09:20:01.487Z,98832.13
2022-07-25T09:22:27.888Z,98827.75
2022-07-25T09:24:54.372Z,98820.84
2022-07-25T09:27:20.835Z,98824.91
2022-07-25T09:29:47.241Z,98825.53
2022-07-25T09:32:14.052Z,98812.66
2022-07-25T09:34:40.432Z,98821.59
2022-07-25T09:37:07.794Z,98806.69
2022-07-25T09:39:34.237Z,98800.91
2022-07-25T09:42:00.612Z,98806.09
2022-07-25T09:44:27.007Z,98792.59
2022-07-25T09:46:54.520Z,98798.91
2022-07-25T09:49:20.924Z,98795.94
2022-07-25T09:51:47.297Z,98787.66
2022-07-25T09:54:14.015Z,98788.50
2022-07-25T09:56:40.477Z,98795.16
2022-07-25T09:59:06.924Z,98784.81
2022-07-25T10:01:33.524Z,98778.22
2022-07-25T10:04:00.055Z,98785.28
2022-07-25T10:06:26.536Z,98770.25
2022-07-25T10:08:53.113Z,98770.66
2022-07-25T10:11:19.721Z,98768.16
2022-07-25T10:13:46.176Z,98766.97
2022-07-25T10:16:12.622Z,98773.63
2022-07-25T10:18:39.020Z,98777.81
2022-07-25T10:21:22.857Z,98778.25
2022-07-25T10:23:51.854Z,98765.16
2022-07-25T10:26:18.324Z,98762.38
2022-07-25T10:28:45.039Z,98768.63
2022-07-25T10:31:11.743Z,98753.66
2022-07-25T10:33:38.344Z,98749.41
2022-07-25T10:36:04.913Z,98757.44
2022-07-25T10:38:31.385Z,98756.19
2022-07-25T10:40:57.828Z,98749.91
2022-07-25T10:43:24.511Z,98746.31
2022-07-25T10:45:51.060Z,98744.44
2022-07-25T10:48:17.728Z,98737.88
2022-07-25T10:50:55.545Z,98740.94
2022-07-25T10:53:23.153Z,98729.19
2022-07-25T10:56:05.149Z,98744.50
2022-07-25T10:58:32.499Z,98724.50
2022-07-25T11:00:58.941Z,98723.53
2022-07-25T11:03:27.701Z,98723.75
2022-07-25T11:05:54.232Z,98722.66
2022-07-25T11:08:22.419Z,98711.91
2022-07-25T11:10:49.295Z,98711.63
2022-07-25T11:13:18.333Z,98700.03
2022-07-25T11:15:44.788Z,98706.34
2022-07-25T11:18:11.330Z,98699.56
2022-07-25T11:20:38.085Z,98697.81
2022-07-25T11:23:04.521Z,98699.88
2022-07-25T11:25:31.155Z,98690.38
2022-07-25T11:27:57.762Z,98684.41
2022-07-25T11:30:24.185Z,98678.06
2022-07-25T11:32:51.095Z,98677.03
2022-07-25T11:35:17.991Z,98663.47
2022-07-25T11:37:44.618Z,98656.84
2022-07-25T11:40:11.223Z,98657.56
2022-07-25T11:42:38.073Z,98660.91
2022-07-25T11:45:04.579Z,98655.91
2022-07-25T11:47:31.137Z,98645.91
2022-07-25T11:49:59.662Z,98638.72
2022-07-25T11:52:26.157Z,98642.72
2022-07-25T11:54:52.849Z,98644.06
2022-07-25T11:57:19.393Z,98639.50
2022-07-25T11:59:45.818Z,98633.28
2022-07-25T12:02:12.410Z,98635.19
2022-07-25T12:04:39.149Z,98628.13
2022-07-25T12:07:05.549Z,98617.88
2022-07-25T12:09:31.945Z,98614.00
2022-07-25T12:11:58.584Z,98616.66
2022-07-25T12:14:24.997Z,98610.19
2022-07-25T12:16:51.684Z,98616.38
2022-07-25T12:19:18.589Z,98608.88
2022-07-25T12:21:45.195Z,98589.00
2022-07-25T12:24:11.626Z,98595.16
2022-07-25T12:26:38.444Z,98589.94
2022-07-25T12:29:05.642Z,98589.84
2022-07-25T12:31:32.441Z,98577.41
2022-07-25T12:33:59.306Z,98575.03
2022-07-25T12:36:25.768Z,98578.88
2022-07-25T12:38:52.171Z,98566.94
2022-07-25T12:41:18.773Z,98575.94
2022-07-25T12:43:45.425Z,98561.94
2022-07-25T12:46:12.016Z,98561.81
2022-07-25T12:48:38.711Z,98560.50
2022-07-25T12:51:05.432Z,98564.28
2022-07-25T12:53:32.010Z,98556.00
2022-07-25T12:56:03.169Z,98552.00
2022-07-25T12:58:29.620Z,98556.72
2022-07-25T13:01:01.122Z,98545.94
2022-07-25T13:03:30.743Z,98543.47
2022-07-25T13:05:57.321Z,98535.69
2022-07-25T13:08:24.255Z,98531.41
2022-07-25T13:10:50.924Z,98529.91
2022-07-25T13:13:17.369Z,98531.91
2022-07-25T13:15:44.014Z,98528.09
2022-07-25T13:18:11.142Z,98524.38
2022-07-25T13:20:39.053Z,98511.91
2022-07-25T13:23:05.645Z,98514.31
2022-07-25T13:25:32.642Z,98514.97
2022-07-25T13:27:59.091Z,98507.28
2022-07-25T13:30:25.557Z,98501.00
2022-07-25T13:32:53.461Z,98500.03
2022-07-25T13:35:21.050Z,98500.28
2022-07-25T13:37:48.509Z,98497.06
2022-07-25T13:40:15.378Z,98492.72
2022-07-25T13:42:41.946Z,98487.53
2022-07-25T13:45:08.600Z,98476.19
2022-07-25T13:47:35.281Z,98471.03
2022-07-25T13:50:01.713Z,98478.84
2022-07-25T13:52:28.502Z,98472.94
2022-07-25T13:54:55.412Z,98471.97
2022-07-25T13:57:21.962Z,98460.03
2022-07-25T13:59:48.482Z,98461.28
2022-07-25T14:02:15.156Z,98450.38
2022-07-25T14:04:41.619Z,98453.41
2022-07-25T14:07:08.094Z,98447.03
2022-07-25T14:09:34.879Z,98445.09
2022-07-25T14:12:01.457Z,98440.50
2022-07-25T14:14:28.047Z,98441.63
2022-07-25T14:16:54.720Z,98442.03
2022-07-25T14:19:21.307Z,98440.16
2022-07-25T14:21:47.899Z,98431.47
2022-07-25T14:24:14.445Z,98425.06
2022-07-25T14:26:41.116Z,98420.16
2022-07-25T14:29:08.095Z,98420.19
2022-07-25T14:31:35.403Z,98413.66
2022-07-25T14:34:01.895Z,98421.38
2022-07-25T14:36:28.781Z,98414.31
2022-07-25T14:38:55.631Z,98412.69
2022-07-25T14:41:22.190Z,98412.75
2022-07-25T14:43:48.648Z,98404.56
2022-07-25T14:46:15.729Z,98408.13
2022-07-25T14:48:42.555Z,98406.22
2022-07-25T14:51:09.341Z,98405.13
2022-07-25T14:53:36.169Z,98398.84
2022-07-25T14:56:02.588Z,98394.47
2022-07-25T14:58:29.074Z,98391.50
2022-07-25T15:00:55.528Z,98388.72
2022-07-25T15:03:22.118Z,98383.00
2022-07-25T15:05:48.529Z,98387.09
2022-07-25T15:08:15.540Z,98381.66
2022-07-25T15:10:41.997Z,98380.53
2022-07-25T15:13:29.895Z,98380.00
2022-07-25T15:15:55.074Z,98367.91
2022-07-25T15:18:21.588Z,98376.13
2022-07-25T15:20:48.026Z,98365.44
2022-07-25T15:23:14.648Z,98375.63
2022-07-25T15:28:27.812Z,98363.81
2022-07-25T15:30:54.267Z,98356.91
2022-07-25T15:33:20.913Z,98353.34
2022-07-25T15:35:47.643Z,98351.69
2022-07-25T15:38:14.178Z,98355.22
2022-07-25T15:40:40.818Z,98345.31
2022-07-25T15:43:07.764Z,98347.50
2022-07-25T15:45:34.218Z,98349.09
2022-07-25T15:48:00.984Z,98344.69
2022-07-25T15:50:27.486Z,98339.16
2022-07-25T15:52:54.007Z,98337.22
2022-07-25T15:55:20.427Z,98341.91
2022-07-25T15:57:48.522Z,98339.44
2022-07-25T16:00:15.167Z,98336.66
2022-07-25T16:02:41.784Z,98335.59
2022-07-25T16:05:08.481Z,98323.19
2022-07-25T16:07:35.092Z,98328.91
2022-07-25T16:10:01.548Z,98323.09
2022-07-25T16:12:28.858Z,98320.34
2022-07-25T16:14:55.476Z,98316.97
2022-07-25T16:17:21.917Z,98323.56
2022-07-25T16:19:48.549Z,98326.63
2022-07-25T16:22:18.058Z,98321.13
2022-07-25T16:24:44.460Z,98319.44
2022-07-25T16:27:11.074Z,98326.31
2022-07-25T16:29:37.785Z,98321.91
2022-07-25T16:32:04.829Z,98317.53
2022-07-25T16:34:31.457Z,98316.72
2022-07-25T16:36:57.911Z,98312.34
2022-07-25T16:39:26.589Z,98318.63
2022-07-25T16:41:53.180Z,98313.66
2022-07-25T16:44:20.129Z,98318.03
2022-07-25T16:46:46.711Z,98313.06
2022-07-25T16:49:13.430Z,98310.56
2022-07-25T16:51:40.041Z,98309.19
2022-07-25T16:54:06.449Z,98305.31
2022-07-25T16:56:32.949Z,98312.69
2022-07-25T16:58:59.419Z,98302.78
2022-07-25T17:01:26.030Z,98309.31
2022-07-25T17:03:52.554Z,98300.47
2022-07-25T17:06:19.051Z,98304.31
2022-07-25T17:08:45.826Z,98311.97
2022-07-25T17:11:12.436Z,98301.47
2022-07-25T17:13:38.969Z,98304.84
2022-07-25T17:16:05.460Z,98300.47
2022-07-25T17:18:32.225Z,98297.66
2022-07-25T17:20:58.672Z,98302.00
2022-07-25T17:23:25.320Z,98296.22
2022-07-25T17:25:51.989Z,98295.53
2022-07-25T17:28:18.559Z,98296.22
2022-07-25T17:30:45.175Z,98289.22
2022-07-25T17:33:12.037Z,98286.00
2022-07-25T17:35:38.529Z,98287.72
2022-07-25T17:38:06.344Z,98279.78
2022-07-25T17:40:34.257Z,98270.19
2022-07-25T17:43:00.712Z,98278.13
2022-07-25T17:45:27.178Z,98264.69
2022-07-25T17:47:58.960Z,98261.13
2022-07-25T17:50:29.016Z,98267.16
2022-07-25T17:52:55.965Z,98258.59
2022-07-25T17:55:22.477Z,98267.91
2022-07-25T17:57:49.753Z,98261.31
2022-07-25T18:00:16.180Z,98260.16
2022-07-25T18:02:43.190Z,98273.38
2022-07-25T18:05:09.683Z,98263.38
2022-07-25T18:07:36.250Z,98257.94
2022-07-25T18:10:02.962Z,98255.47
2022-07-25T18:12:29.712Z,98251.91
2022-07-25T18:14:56.210Z,98257.94
2022-07-25T18:17:22.744Z,98259.56
2022-07-25T18:19:49.305Z,98260.69
2022-07-25T18:22:15.875Z,98257.03
2022-07-25T18:24:42.568Z,98256.53
2022-07-25T18:27:09.051Z,98252.69
2022-07-25T18:29:35.481Z,98259.78
2022-07-25T18:32:04.470Z,98265.25
2022-07-25T18:34:30.868Z,98257.28
2022-07-25T18:36:57.478Z,98261.91
2022-07-25T18:39:24.229Z,98260.75
2022-07-25T18:41:50.661Z,98258.53
2022-07-25T18:44:17.106Z,98254.72
2022-07-25T18:46:44.600Z,98255.53
2022-07-25T18:49:11.983Z,98254.44
2022-07-25T18:51:38.376Z,98249.97
2022-07-25T18:54:05.052Z,98265.06
2022-07-25T18:56:31.680Z,98265.28
2022-07-25T18:58:58.157Z,98258.44
2022-07-25T19:01:26.665Z,98263.34
2022-07-25T19:03:53.449Z,98267.50
2022-07-25T19:06:21.076Z,98271.88
2022-07-25T19:08:48.069Z,98266.06
2022-07-25T19:11:14.452Z,98266.03
2022-07-25T19:13:50.131Z,98264.56
2022-07-25T19:16:17.573Z,98268.91
2022-07-25T19:18:44.254Z,98277.66
2022-07-25T19:21:10.672Z,98274.97
2022-07-25T19:23:37.852Z,98284.25
2022-07-25T19:26:04.375Z,98286.22
2022-07-25T19:28:30.827Z,98282.22
2022-07-25T19:30:57.636Z,98288.00
2022-07-25T19:33:24.511Z,98284.72
2022-07-25T19:35:50.985Z,98288.53
2022-07-25T19:38:19.556Z,98286.34
2022-07-25T19:40:45.975Z,98288.81
2022-07-25T19:43:12.388Z,98292.25
2022-07-25T19:45:39.273Z,98296.91
2022-07-25T19:48:07.101Z,98290.63
2022-07-25T19:50:34.254Z,98285.47
2022-07-25T19:53:00.789Z,98295.00
2022-07-25T19:55:28.140Z,98284.59
2022-07-25T19:57:54.807Z,98285.09
2022-07-25T20:00:21.467Z,98285.66
2022-07-25T20:02:48.070Z,98283.38
2022-07-25T20:05:15.014Z,98268.34
2022-07-25T20:07:41.709Z,98265.25
2022-07-25T20:10:08.118Z,98269.06
2022-07-25T20:12:34.771Z,98269.34
2022-07-25T20:15:01.345Z,98263.78
2022-07-25T20:17:28.190Z,98255.34
2022-07-25T20:19:54.715Z,98254.19
2022-07-25T20:22:21.641Z,98255.00
2022-07-25T20:24:48.127Z,98245.75
2022-07-25T20:27:14.685Z,98251.78
2022-07-25T20:29:44.040Z,98248.16
2022-07-25T20:32:10.631Z,98244.59
2022-07-25T20:34:41.311Z,98241.28
2022-07-25T20:37:08.158Z,98242.75
2022-07-25T20:39:34.608Z,98257.81
2022-07-25T20:42:01.019Z,98242.78
2022-07-25T20:44:27.609Z,98245.16
2022-07-25T20:46:54.113Z,98238.16
2022-07-25T20:49:20.563Z,98249.25
2022-07-25T20:51:49.861Z,98241.50
2022-07-25T20:54:20.633Z,98236.19
2022-07-25T20:56:47.080Z,98237.09
2022-07-25T20:59:15.613Z,98244.25
2022-07-25T21:01:42.274Z,98246.78
2022-07-25T21:04:08.711Z,98252.94
2022-07-25T21:06:37.504Z,98241.66
2022-07-25T21:09:04.015Z,98245.47
2022-07-25T21:11:30.537Z,98236.88
2022-07-25T21:13:57.051Z,98246.53
2022-07-25T21:16:23.723Z,98248.63
2022-07-25T21:18:50.372Z,98243.75
2022-07-25T21:21:16.904Z,98247.28
2022-07-25T21:23:43.311Z,98238.84
2022-07-25T21:26:10.565Z,98238.28
2022-07-25T21:28:37.061Z,98245.94
2022-07-25T21:31:03.617Z,98240.19
2022-07-25T21:33:29.999Z,98241.16
2022-07-25T21:36:01.479Z,98241.91
2022-07-25T21:38:30.383Z,98234.63
2022-07-25T21:40:59.035Z,98240.09
2022-07-25T21:43:25.659Z,98234.38
2022-07-25T21:45:52.290Z,98234.06
2022-07-25T21:48:22.128Z,98232.25
2022-07-25T21:50:50.457Z,98235.38
2022-07-25T21:53:17.026Z,98239.00
2022-07-25T21:55:43.393Z,98240.03
2022-07-25T21:58:09.913Z,98239.84
2022-07-25T22:00:41.384Z,98260.75
2022-07-25T22:03:12.121Z,98254.81
2022-07-25T22:05:38.584Z,98254.41
2022-07-25T22:08:04.988Z,98264.13
2022-07-25T22:10:31.501Z,98260.63
2022-07-25T22:13:00.062Z,98260.75
2022-07-25T22:15:26.648Z,98260.81
2022-07-25T22:17:53.301Z,98263.69
2022-07-25T22:20:19.724Z,98253.69
2022-07-25T22:22:46.161Z,98249.66
2022-07-25T22:25:12.813Z,98249.78
2022-07-25T22:27:39.415Z,98250.03
2022-07-25T22:30:05.840Z,98248.00
2022-07-25T22:32:32.506Z,98255.41
2022-07-25T22:34:59.112Z,98246.06
2022-07-25T22:37:25.584Z,98254.53
2022-07-25T22:40:00.890Z,98257.66
2022-07-25T22:42:28.391Z,98247.34
2022-07-25T22:44:54.891Z,98248.50
2022-07-25T22:47:21.645Z,98239.63
2022-07-25T22:49:48.042Z,98237.25
2022-07-25T22:52:14.760Z,98241.66
2022-07-25T22:54:41.357Z,98246.75
2022-07-25T22:57:07.950Z,98241.31
2022-07-25T22:59:34.443Z,98248.75
2022-07-25T23:02:01.227Z,98247.78
2022-07-25T23:04:27.831Z,98245.19
2022-07-25T23:06:55.524Z,98247.59
2022-07-25T23:09:21.967Z,98250.53
2022-07-25T23:11:48.892Z,98255.72
2022-07-25T23:14:15.366Z,98251.13
2022-07-25T23:16:41.835Z,98244.94
2022-07-25T23:19:08.722Z,98235.03
2022-07-25T23:21:35.248Z,98231.50
2022-07-25T23:24:01.729Z,98233.63
2022-07-25T23:26:28.153Z,98236.72
2022-07-25T23:28:54.791Z,98239.66
2022-07-25T23:31:21.403Z,98225.56
2022-07-25T23:33:47.915Z,98223.69
2022-07-25T23:36:14.311Z,98228.50
2022-07-25T23:38:40.871Z,98226.16
2022-07-25T23:41:07.288Z,98221.69
2022-07-25T23:43:56.246Z,98225.94
2022-07-25T23:46:27.970Z,98226.50
2022-07-25T23:48:55.925Z,98230.44
2022-07-25T23:51:22.772Z,98228.31
2022-07-25T23:53:49.234Z,98222.88
2022-07-25T23:56:20.503Z,98220.97
2022-07-25T23:58:48.191Z,98216.47
